Time;durP1;ratioP1;P1;durP2;ratioP2;P2;SDS_P1;SDS_P2;PMS_P1;PMS_P2;Temp;Humidity;BMP_temperature;BMP_pressure;BME280_temperature;BME280_humidity;BME280_pressure;Samples;Min_cycle;Max_cycle;Signal;HPM_P1;HPM_P2
2023/08/16 00:01:17;;;;;;;5.40;3.20;;;19.90;46.90;;;;;;5050091;28;20214;-72
2023/08/16 00:03:43;;;;;;;6.30;3.50;;;19.90;47.60;;;;;;5050010;28;20182;-73
2023/08/16 00:06:13;;;;;;;6.30;2.93;;;19.90;47.90;;;;;;5050316;28;20220;-73
2023/08/16 00:08:40;;;;;;;4.70;3.77;;;19.90;47.50;;;;;;5050465;28;20421;-73
2023/08/16 00:11:06;;;;;;;4.47;3.83;;;20.00;47.60;;;;;;5050189;28;20425;-73
2023/08/16 00:13:32;;;;;;;5.73;3.10;;;19.90;47.20;;;;;;5049921;28;20837;-72
2023/08/16 00:15:57;;;;;;;4.30;3.40;;;19.90;46.90;;;;;;5050282;28;20503;-72
2023/08/16 00:18:23;;;;;;;4.20;3.00;;;19.90;47.90;;;;;;5050203;28;20501;-72
2023/08/16 00:20:49;;;;;;;6.40;3.73;;;19.80;46.90;;;;;;5050212;28;20204;-72
2023/08/16 00:23:14;;;;;;;4.30;3.57;;;19.80;46.30;;;;;;5049914;28;20214;-72
2023/08/16 00:25:40;;;;;;;4.70;3.17;;;19.80;47.20;;;;;;5048801;28;20596;-73
2023/08/16 00:28:05;;;;;;;5.03;3.20;;;19.70;47.30;;;;;;5050121;28;20624;-73
2023/08/16 00:30:31;;;;;;;4.00;2.60;;;19.70;48.20;;;;;;5050593;28;20174;-72
2023/08/16 00:32:57;;;;;;;7.60;3.13;;;19.60;47.70;;;;;;5049464;28;20209;-72
2023/08/16 00:35:23;;;;;;;4.30;3.60;;;19.60;48.30;;;;;;5049914;28;20512;-72
2023/08/16 00:37:48;;;;;;;6.20;3.60;;;19.70;48.10;;;;;;5050021;28;20174;-72
2023/08/16 00:40:18;;;;;;;4.80;3.80;;;19.70;48.40;;;;;;5050021;28;20210;-72
2023/08/16 00:42:43;;;;;;;6.37;3.70;;;19.70;48.90;;;;;;5049255;28;20217;-72
2023/08/16 00:45:09;;;;;;;5.80;4.10;;;19.60;48.90;;;;;;5049834;28;20449;-72
2023/08/16 00:47:35;;;;;;;5.00;3.50;;;19.60;49.00;;;;;;5050134;28;20206;-72
2023/08/16 00:50:01;;;;;;;8.63;4.67;;;19.60;48.00;;;;;;5049678;28;20509;-71
2023/08/16 00:52:27;;;;;;;5.03;4.07;;;19.50;48.60;;;;;;5049719;28;20189;-72
2023/08/16 00:54:54;;;;;;;5.33;3.97;;;19.50;48.40;;;;;;5049879;28;20527;-71
2023/08/16 00:57:20;;;;;;;4.67;4.10;;;19.50;47.90;;;;;;5050363;28;20502;-71
2023/08/16 00:59:46;;;;;;;5.30;4.80;;;19.50;48.40;;;;;;5050429;28;20471;-76
2023/08/16 01:02:14;;;;;;;8.37;5.20;;;19.50;47.80;;;;;;5050092;28;20827;-71
2023/08/16 01:04:42;;;;;;;5.27;3.83;;;19.40;47.60;;;;;;5050169;28;20736;-71
2023/08/16 01:07:07;;;;;;;3.77;3.37;;;19.40;48.40;;;;;;5050748;28;20418;-72
2023/08/16 01:09:33;;;;;;;4.63;3.50;;;19.40;48.60;;;;;;5050300;28;20823;-73
2023/08/16 01:12:17;;;;;;;4.40;3.40;;;19.30;48.40;;;;;;5049903;28;20198;-72
2023/08/16 01:14:52;;;;;;;6.57;3.77;;;19.30;49.10;;;;;;5048395;28;20198;-72
2023/08/16 01:17:21;;;;;;;4.77;3.87;;;19.30;49.60;;;;;;5049266;28;20433;-71
2023/08/16 01:19:49;;;;;;;6.00;3.70;;;19.30;49.60;;;;;;5049471;28;20848;-72
2023/08/16 01:22:23;;;;;;;5.70;4.80;;;19.20;49.50;;;;;;5049091;28;20464;-72
2023/08/16 01:25:11;;;;;;;3.87;3.47;;;19.30;49.60;;;;;;5049166;28;20472;-71
2023/08/16 01:27:37;;;;;;;4.90;3.73;;;19.30;49.60;;;;;;5048709;28;20417;-71
2023/08/16 01:30:04;;;;;;;4.77;3.70;;;19.30;49.60;;;;;;5049093;28;20463;-71
2023/08/16 01:32:31;;;;;;;6.00;4.30;;;19.20;50.00;;;;;;5048679;28;20433;-72
2023/08/16 01:34:58;;;;;;;4.97;4.27;;;19.20;51.00;;;;;;5048937;28;20788;-72
2023/08/16 01:37:24;;;;;;;5.70;4.00;;;19.20;51.30;;;;;;5048778;28;20821;-71
2023/08/16 01:39:51;;;;;;;5.97;3.83;;;19.10;51.20;;;;;;5049031;28;20426;-71
2023/08/16 01:42:17;;;;;;;6.70;3.70;;;19.10;51.60;;;;;;5048929;28;20468;-71
2023/08/16 01:44:48;;;;;;;4.63;3.20;;;19.00;52.10;;;;;;5049121;28;20441;-71
2023/08/16 01:47:15;;;;;;;5.00;3.93;;;19.00;52.20;;;;;;5049382;28;20599;-71
2023/08/16 01:49:42;;;;;;;4.37;3.37;;;18.90;52.90;;;;;;5048910;28;20477;-71
2023/08/16 01:52:08;;;;;;;4.80;4.30;;;18.90;54.10;;;;;;5048354;28;20429;-71
2023/08/16 01:54:34;;;;;;;5.10;4.20;;;18.90;54.00;;;;;;5048728;28;20440;-71
2023/08/16 01:57:00;;;;;;;7.17;4.23;;;18.90;54.40;;;;;;5048712;28;20429;-71
2023/08/16 01:59:25;;;;;;;5.67;3.60;;;18.80;55.20;;;;;;5048715;28;20829;-71
2023/08/16 02:01:51;;;;;;;5.83;4.37;;;18.80;56.00;;;;;;5048374;28;20566;-71
2023/08/16 02:04:17;;;;;;;4.90;3.90;;;18.70;57.20;;;;;;5048559;28;20190;-71
2023/08/16 02:06:42;;;;;;;7.43;4.67;;;18.70;58.20;;;;;;5048571;28;20178;-71
2023/08/16 02:09:08;;;;;;;11.17;6.17;;;18.70;59.10;;;;;;5048809;28;20182;-71
2023/08/16 02:11:34;;;;;;;5.53;4.23;;;18.70;59.10;;;;;;5048237;28;20507;-70
2023/08/16 02:13:59;;;;;;;6.97;4.57;;;18.70;59.10;;;;;;5048366;28;20233;-71
2023/08/16 02:16:25;;;;;;;6.47;4.13;;;18.70;59.10;;;;;;5048592;28;20218;-70
2023/08/16 02:18:51;;;;;;;5.07;3.73;;;18.70;59.10;;;;;;5048436;28;20186;-70
2023/08/16 02:21:17;;;;;;;4.10;3.70;;;18.60;59.40;;;;;;5047299;28;20501;-71
2023/08/16 02:23:43;;;;;;;5.10;4.60;;;18.50;61.10;;;;;;5048021;28;20425;-71
2023/08/16 02:26:09;;;;;;;3.67;3.10;;;18.50;61.60;;;;;;5048421;28;20174;-71
2023/08/16 02:28:35;;;;;;;4.63;4.23;;;18.50;61.60;;;;;;5048335;28;20409;-70
2023/08/16 02:31:05;;;;;;;7.57;4.20;;;18.50;61.30;;;;;;5048224;28;20179;-70
2023/08/16 02:33:34;;;;;;;8.53;5.37;;;18.50;60.20;;;;;;5047804;28;20183;-71
2023/08/16 02:36:00;;;;;;;9.77;4.70;;;18.50;60.30;;;;;;5048288;28;20442;-71
2023/08/16 02:38:25;;;;;;;7.17;4.93;;;18.50;58.90;;;;;;5048272;28;20492;-71
2023/08/16 02:40:51;;;;;;;6.80;3.90;;;18.50;58.90;;;;;;5048363;28;20201;-71
2023/08/16 02:43:17;;;;;;;11.23;5.10;;;18.40;59.30;;;;;;5046571;27;20468;-72
2023/08/16 02:45:43;;;;;;;7.03;5.30;;;18.40;59.30;;;;;;5048079;28;20190;-71
2023/08/16 02:48:08;;;;;;;6.70;5.50;;;18.40;60.20;;;;;;5048133;28;20190;-70
2023/08/16 02:50:34;;;;;;;5.80;5.03;;;18.30;59.90;;;;;;5050980;28;20417;-70
2023/08/16 02:52:59;;;;;;;5.33;4.57;;;18.30;60.40;;;;;;5051216;28;20178;-70
2023/08/16 02:55:25;;;;;;;6.03;5.47;;;18.30;60.40;;;;;;5051428;28;20215;-70
2023/08/16 02:57:52;;;;;;;6.90;5.43;;;18.30;61.80;;;;;;5051745;28;20552;-70
2023/08/16 03:00:18;;;;;;;5.30;4.77;;;18.30;61.60;;;;;;5051637;28;20682;-70
2023/08/16 03:02:43;;;;;;;5.10;4.27;;;18.30;61.60;;;;;;5051455;28;20649;-71
2023/08/16 03:05:10;;;;;;;9.63;5.27;;;18.30;61.30;;;;;;5051169;28;20602;-71
2023/08/16 03:07:35;;;;;;;7.00;5.20;;;18.30;62.20;;;;;;5051383;28;20171;-71
2023/08/16 03:10:01;;;;;;;6.17;5.50;;;18.30;62.50;;;;;;5050868;28;20817;-71
2023/08/16 03:12:27;;;;;;;10.03;5.70;;;18.30;62.50;;;;;;5051369;28;20191;-71
2023/08/16 03:14:52;;;;;;;5.73;5.13;;;18.30;61.70;;;;;;5051267;28;20198;-71
2023/08/16 03:17:18;;;;;;;6.10;4.67;;;18.30;60.80;;;;;;5051303;28;20175;-71
2023/08/16 03:19:44;;;;;;;6.07;5.07;;;18.30;61.20;;;;;;5051205;28;20417;-71
2023/08/16 03:22:09;;;;;;;6.43;5.00;;;18.30;60.70;;;;;;5050626;28;20204;-71
2023/08/16 03:24:35;;;;;;;6.23;5.20;;;18.20;62.20;;;;;;5050930;28;20679;-71
2023/08/16 03:27:01;;;;;;;6.40;5.80;;;18.30;61.70;;;;;;5050930;28;20651;-71
2023/08/16 03:29:26;;;;;;;5.90;5.30;;;18.30;61.80;;;;;;5051015;28;20171;-71
2023/08/16 03:31:52;;;;;;;7.83;6.40;;;18.20;61.70;;;;;;5050493;28;20185;-71
2023/08/16 03:34:17;;;;;;;6.83;5.47;;;18.20;62.70;;;;;;5050477;28;20289;-71
2023/08/16 03:36:43;;;;;;;5.47;4.87;;;18.20;62.20;;;;;;5051035;28;20262;-71
2023/08/16 03:39:09;;;;;;;9.63;6.30;;;18.20;62.00;;;;;;5051062;28;20530;-71
2023/08/16 03:41:34;;;;;;;5.53;4.77;;;18.20;63.00;;;;;;5050409;28;20694;-71
2023/08/16 03:44:01;;;;;;;7.73;5.10;;;18.20;61.80;;;;;;5050775;28;20516;-71
2023/08/16 03:46:26;;;;;;;8.87;6.53;;;18.10;62.40;;;;;;5051108;28;20628;-71
2023/08/16 03:48:52;;;;;;;4.50;3.63;;;18.10;62.40;;;;;;5050625;28;20405;-71
2023/08/16 03:51:17;;;;;;;6.90;5.90;;;18.10;62.60;;;;;;5050580;28;20179;-71
2023/08/16 03:53:43;;;;;;;7.00;5.63;;;18.10;62.20;;;;;;5050236;28;20550;-71
2023/08/16 03:56:08;;;;;;;6.10;5.50;;;18.10;62.20;;;;;;5050628;28;20702;-71
2023/08/16 03:58:34;;;;;;;7.30;6.23;;;18.00;62.20;;;;;;5050650;28;20179;-71
2023/08/16 04:01:00;;;;;;;6.80;4.73;;;18.00;63.20;;;;;;5050651;28;20547;-71
2023/08/16 04:03:26;;;;;;;9.33;6.37;;;17.90;62.60;;;;;;5050054;28;20648;-72
2023/08/16 04:05:51;;;;;;;7.00;5.70;;;17.90;63.40;;;;;;5050491;28;20435;-71
2023/08/16 04:08:17;;;;;;;7.80;5.67;;;17.90;62.40;;;;;;5050348;28;20190;-71
2023/08/16 04:10:42;;;;;;;7.53;6.20;;;17.90;63.70;;;;;;5050742;28;20522;-71
2023/08/16 04:13:08;;;;;;;6.87;6.17;;;17.80;63.80;;;;;;5050174;28;20175;-71
2023/08/16 04:15:34;;;;;;;7.90;6.37;;;17.80;64.10;;;;;;5050277;28;20230;-71
2023/08/16 04:17:59;;;;;;;9.47;6.40;;;17.80;64.50;;;;;;5050437;28;20408;-71
2023/08/16 04:20:25;;;;;;;8.33;6.67;;;17.80;65.70;;;;;;5049666;28;20643;-71
2023/08/16 04:22:51;;;;;;;7.03;6.30;;;17.90;68.70;;;;;;5049667;28;20210;-71
2023/08/16 04:25:16;;;;;;;9.53;6.83;;;18.00;68.80;;;;;;5050152;28;20620;-71
2023/08/16 04:27:42;;;;;;;7.67;6.63;;;18.00;69.60;;;;;;5050109;28;20171;-71
2023/08/16 04:30:09;;;;;;;12.00;7.20;;;18.20;69.80;;;;;;5050113;28;20413;-71
2023/08/16 04:32:35;;;;;;;7.57;6.10;;;18.20;69.00;;;;;;5049575;28;20405;-71
2023/08/16 04:35:02;;;;;;;9.03;7.40;;;18.20;69.00;;;;;;5050593;28;20441;-71
2023/08/16 04:37:27;;;;;;;6.73;6.03;;;18.30;69.10;;;;;;5051192;28;20559;-71
2023/08/16 04:39:53;;;;;;;6.97;5.83;;;18.30;68.40;;;;;;5050719;28;20538;-71
2023/08/16 04:42:19;;;;;;;7.50;6.70;;;18.30;67.10;;;;;;5049477;28;20207;-71
2023/08/16 04:44:44;;;;;;;7.87;6.67;;;18.30;67.10;;;;;;5049813;28;20195;-72
2023/08/16 04:47:10;;;;;;;7.83;5.87;;;18.40;67.30;;;;;;5050407;28;20707;-75
2023/08/16 04:49:35;;;;;;;8.70;7.80;;;18.40;66.30;;;;;;5049837;28;20170;-70
2023/08/16 04:52:01;;;;;;;6.67;6.03;;;18.50;66.60;;;;;;5049392;28;20257;-72
2023/08/16 04:54:26;;;;;;;9.37;6.90;;;18.60;65.70;;;;;;5049390;28;20210;-71
2023/08/16 04:56:52;;;;;;;8.07;6.90;;;18.60;65.50;;;;;;5049838;28;20190;-70
2023/08/16 04:59:18;;;;;;;9.17;7.90;;;18.60;64.50;;;;;;5049654;28;20178;-71
2023/08/16 05:01:44;;;;;;;7.03;6.33;;;18.60;66.30;;;;;;5048061;27;20199;-71
2023/08/16 05:04:09;;;;;;;7.70;6.90;;;18.60;66.80;;;;;;5049531;28;20278;-70
2023/08/16 05:06:36;;;;;;;8.73;6.70;;;18.60;66.60;;;;;;5050483;28;20482;-71
2023/08/16 05:09:05;;;;;;;9.57;7.93;;;18.70;66.40;;;;;;5050449;28;20182;-70
2023/08/16 05:11:31;;;;;;;7.73;6.93;;;18.70;66.10;;;;;;5049694;28;20772;-71
2023/08/16 05:13:57;;;;;;;8.17;6.93;;;18.70;65.80;;;;;;5050042;28;20445;-70
2023/08/16 05:16:22;;;;;;;10.20;7.20;;;18.70;65.60;;;;;;5050411;28;20231;-71
2023/08/16 05:18:48;;;;;;;8.63;7.87;;;18.80;65.40;;;;;;5049753;28;20209;-70
2023/08/16 05:21:13;;;;;;;12.70;8.27;;;18.90;65.10;;;;;;5050114;28;20742;-71
2023/08/16 05:23:39;;;;;;;10.90;8.00;;;19.00;63.90;;;;;;5049103;28;20270;-70
2023/08/16 05:26:05;;;;;;;8.23;6.23;;;19.10;62.20;;;;;;5049373;28;20182;-70
2023/08/16 05:28:30;;;;;;;8.67;7.73;;;19.20;60.90;;;;;;5049264;28;20200;-72
2023/08/16 05:31:05;;;;;;;7.50;5.87;;;19.40;59.70;;;;;;5049258;28;20214;-71
2023/08/16 05:33:30;;;;;;;7.60;6.90;;;19.50;57.50;;;;;;5048707;28;20719;-71
2023/08/16 05:35:56;;;;;;;7.63;6.83;;;19.70;56.90;;;;;;5046164;28;20451;-70
2023/08/16 05:38:22;;;;;;;6.83;5.97;;;19.90;55.00;;;;;;5028987;28;20194;-71
2023/08/16 05:40:48;;;;;;;7.83;6.60;;;20.10;52.80;;;;;;5031627;28;20208;-71
2023/08/16 05:43:13;;;;;;;8.67;6.30;;;20.40;50.60;;;;;;5036706;28;20925;-71
2023/08/16 05:45:39;;;;;;;7.90;7.20;;;21.40;46.60;;;;;;5027965;28;20198;-72
2023/08/16 05:48:05;;;;;;;7.90;6.97;;;22.80;34.50;;;;;;5029292;28;20552;-69
2023/08/16 05:50:30;;;;;;;6.97;6.30;;;24.20;26.80;;;;;;5029412;28;20178;-69
2023/08/16 05:52:56;;;;;;;12.00;6.33;;;25.40;21.80;;;;;;5032981;28;20209;-72
2023/08/16 05:55:21;;;;;;;7.27;5.87;;;26.60;15.90;;;;;;5037207;28;20588;-69
2023/08/16 05:57:47;;;;;;;7.87;5.37;;;27.60;13.60;;;;;;5029280;28;20232;-73
2023/08/16 06:00:13;;;;;;;8.00;5.37;;;29.00;9.50;;;;;;5029842;28;20171;-71
2023/08/16 06:02:41;;;;;;;5.13;4.43;;;29.50;8.10;;;;;;5045982;28;20265;-71
2023/08/16 06:05:07;;;;;;;5.83;5.23;;;30.30;6.40;;;;;;5049062;28;20425;-70
2023/08/16 06:07:33;;;;;;;7.23;6.53;;;31.90;2.60;;;;;;5048759;28;20492;-70
2023/08/16 06:09:58;;;;;;;7.90;5.43;;;32.90;1.00;;;;;;5049048;28;20433;-71
2023/08/16 06:12:24;;;;;;;6.50;5.87;;;32.90;1.00;;;;;;5048446;28;20182;-70
2023/08/16 06:14:50;;;;;;;6.37;5.73;;;34.00;1.00;;;;;;5048695;28;20285;-71
2023/08/16 06:17:15;;;;;;;6.77;6.00;;;34.30;1.00;;;;;;5048814;28;20182;-71
2023/08/16 06:19:41;;;;;;;5.80;5.30;;;34.50;1.00;;;;;;5049045;28;20182;-70
2023/08/16 06:22:06;;;;;;;6.10;5.60;;;35.30;1.00;;;;;;5048789;28;20319;-70
2023/08/16 06:24:35;;;;;;;6.10;5.50;;;35.40;1.00;;;;;;5050385;28;20193;-70
2023/08/16 06:27:00;;;;;;;6.63;5.87;;;34.20;1.00;;;;;;5052365;28;20185;-71
2023/08/16 06:29:26;;;;;;;6.27;5.77;;;35.30;1.00;;;;;;5052197;28;20496;-70
2023/08/16 06:31:54;;;;;;;7.80;6.20;;;36.20;1.00;;;;;;5050075;27;20190;-71
2023/08/16 06:34:20;;;;;;;7.00;6.40;;;36.50;1.00;;;;;;5051994;28;20566;-71
2023/08/16 06:36:46;;;;;;;6.90;6.40;;;36.50;1.00;;;;;;5052493;28;20417;-71
2023/08/16 06:39:12;;;;;;;9.00;6.67;;;37.10;1.00;;;;;;5052239;28;20210;-71
2023/08/16 06:41:38;;;;;;;6.60;6.10;;;37.80;1.00;;;;;;5051323;28;20511;-70
2023/08/16 06:44:04;;;;;;;6.37;5.87;;;38.20;1.00;;;;;;5051754;28;20518;-70
2023/08/16 06:46:29;;;;;;;6.70;6.10;;;37.30;1.00;;;;;;5050003;28;20175;-70
2023/08/16 06:48:55;;;;;;;6.57;6.03;;;37.00;1.00;;;;;;5051477;28;20412;-70
2023/08/16 06:51:20;;;;;;;7.43;6.90;;;36.80;1.00;;;;;;5050890;28;20189;-69
2023/08/16 06:53:46;;;;;;;7.33;6.73;;;37.40;1.00;;;;;;5050340;28;20561;-70
2023/08/16 06:56:12;;;;;;;8.43;7.60;;;38.10;1.00;;;;;;5050714;28;20548;-69
2023/08/16 06:58:37;;;;;;;6.47;5.90;;;37.80;1.00;;;;;;5050995;28;20541;-70
2023/08/16 07:01:03;;;;;;;7.20;6.60;;;38.10;1.00;;;;;;5051194;28;20585;-70
2023/08/16 07:03:28;;;;;;;6.90;6.27;;;38.30;1.00;;;;;;5050971;28;20213;-73
2023/08/16 07:05:54;;;;;;;9.37;8.40;;;37.40;1.00;;;;;;5051130;28;20167;-71
2023/08/16 07:08:20;;;;;;;9.40;6.63;;;38.00;1.00;;;;;;5051227;28;20202;-71
2023/08/16 07:10:46;;;;;;;8.53;6.60;;;38.30;1.00;;;;;;5050876;28;20285;-71
2023/08/16 07:13:12;;;;;;;6.27;5.77;;;38.50;1.00;;;;;;5050798;28;20413;-71
2023/08/16 07:15:37;;;;;;;5.60;5.20;;;36.40;1.00;;;;;;5050769;28;20440;-72
2023/08/16 07:18:03;;;;;;;7.03;6.43;;;35.60;1.00;;;;;;5050625;28;20665;-70
2023/08/16 07:20:29;;;;;;;6.03;5.53;;;36.90;1.00;;;;;;5050910;28;20320;-72
2023/08/16 07:22:55;;;;;;;8.00;5.93;;;37.00;1.00;;;;;;5050259;28;20242;-72
2023/08/16 07:25:20;;;;;;;7.17;6.53;;;36.20;1.00;;;;;;5046212;28;20642;-69
2023/08/16 07:27:46;;;;;;;7.20;6.50;;;35.60;1.00;;;;;;5046047;28;20187;-69
2023/08/16 07:30:12;;;;;;;6.37;5.87;;;36.80;1.00;;;;;;5047239;28;20186;-69
2023/08/16 07:32:38;;;;;;;9.00;5.70;;;36.10;1.00;;;;;;5046122;28;20195;-69
2023/08/16 07:35:03;;;;;;;6.70;6.20;;;34.80;1.00;;;;;;5046485;28;20444;-69
2023/08/16 07:37:31;;;;;;;6.10;5.60;;;33.70;1.00;;;;;;5047216;28;20465;-69
2023/08/16 07:39:58;;;;;;;9.43;5.70;;;32.90;1.00;;;;;;5046516;28;20193;-70
2023/08/16 07:42:24;;;;;;;5.33;4.83;;;32.10;1.00;;;;;;5046885;28;20964;-69
2023/08/16 07:44:50;;;;;;;8.03;5.50;;;31.20;1.00;;;;;;5046855;28;20433;-69
2023/08/16 07:47:15;;;;;;;7.67;5.70;;;30.70;1.00;;;;;;5049107;28;20179;-69
2023/08/16 07:49:41;;;;;;;7.07;5.70;;;30.10;1.00;;;;;;5050184;28;20206;-69
2023/08/16 07:52:07;;;;;;;7.03;6.33;;;29.70;1.50;;;;;;5048765;28;20182;-69
2023/08/16 07:54:33;;;;;;;8.10;5.27;;;29.40;2.70;;;;;;5049026;28;20194;-69
2023/08/16 07:56:58;;;;;;;5.93;4.70;;;28.90;3.70;;;;;;5050229;28;20179;-69
2023/08/16 07:59:24;;;;;;;5.13;4.60;;;28.60;4.60;;;;;;5050115;28;20616;-69
2023/08/16 08:01:51;;;;;;;6.57;5.40;;;28.70;5.20;;;;;;5049862;28;20226;-69
2023/08/16 08:04:18;;;;;;;7.90;6.00;;;29.10;4.90;;;;;;5050085;28;20202;-69
2023/08/16 08:06:44;;;;;;;6.20;5.60;;;29.30;3.90;;;;;;5050460;28;20413;-69
2023/08/16 08:09:09;;;;;;;7.03;4.63;;;29.70;3.30;;;;;;5050215;28;20420;-69
2023/08/16 08:11:37;;;;;;;5.23;4.73;;;29.70;3.20;;;;;;5049866;28;20409;-69
2023/08/16 08:14:02;;;;;;;6.23;4.97;;;29.50;3.10;;;;;;5049890;28;20198;-69
2023/08/16 08:16:28;;;;;;;9.00;6.83;;;29.60;4.10;;;;;;5050161;28;20933;-69
2023/08/16 08:18:54;;;;;;;7.60;6.03;;;30.00;3.10;;;;;;5049917;28;20171;-69
2023/08/16 08:21:19;;;;;;;6.33;5.73;;;30.90;1.80;;;;;;5049738;28;20647;-69
2023/08/16 08:23:45;;;;;;;5.70;5.20;;;32.80;1.00;;;;;;5049667;28;20258;-69
2023/08/16 08:26:10;;;;;;;6.43;5.93;;;34.30;1.00;;;;;;5049882;28;20207;-69
2023/08/16 08:28:36;;;;;;;7.17;6.57;;;35.70;1.00;;;;;;5050020;28;20179;-69
2023/08/16 08:31:03;;;;;;;6.20;5.70;;;35.20;1.00;;;;;;5049731;28;20258;-69
2023/08/16 08:33:29;;;;;;;6.70;6.20;;;34.30;1.00;;;;;;5049698;28;20171;-69
2023/08/16 08:35:55;;;;;;;7.03;5.90;;;34.30;1.00;;;;;;5049834;28;20760;-70
2023/08/16 08:38:22;;;;;;;6.83;6.13;;;34.90;1.00;;;;;;5050214;28;20420;-70
2023/08/16 08:40:58;;;;;;;6.70;6.20;;;35.40;1.00;;;;;;5049628;28;20480;-70
2023/08/16 08:43:34;;;;;;;6.63;6.10;;;35.80;1.00;;;;;;5049336;28;20488;-70
2023/08/16 08:46:00;;;;;;;7.57;5.80;;;34.70;1.00;;;;;;5049398;28;20409;-70
2023/08/16 08:48:29;;;;;;;6.23;5.63;;;32.90;1.00;;;;;;5049404;28;20823;-69
2023/08/16 08:50:55;;;;;;;6.73;5.30;;;31.90;1.00;;;;;;5049595;28;20405;-69
2023/08/16 08:53:22;;;;;;;6.73;6.23;;;33.00;1.00;;;;;;5049400;28;20512;-70
2023/08/16 08:55:52;;;;;;;6.97;6.37;;;35.10;1.00;;;;;;5049329;28;20508;-70
2023/08/16 08:58:19;;;;;;;6.27;5.80;;;35.80;1.00;;;;;;5049464;28;20428;-70
2023/08/16 09:00:46;;;;;;;6.70;6.20;;;37.20;1.00;;;;;;5049398;28;20420;-70
2023/08/16 09:03:12;;;;;;;6.53;5.93;;;37.30;1.00;;;;;;5049202;28;20445;-70
2023/08/16 09:05:39;;;;;;;6.50;5.90;;;36.00;1.00;;;;;;5049547;28;20428;-69
2023/08/16 09:08:06;;;;;;;8.40;7.07;;;33.50;1.00;;;;;;5049232;28;20416;-69
2023/08/16 09:10:37;;;;;;;6.30;5.43;;;32.20;1.00;;;;;;5049364;28;20489;-69
2023/08/16 09:13:06;;;;;;;5.67;5.13;;;31.10;1.00;;;;;;5047982;28;21002;-69
2023/08/16 09:15:34;;;;;;;5.30;4.90;;;29.90;3.30;;;;;;5049115;28;20448;-69
2023/08/16 09:18:10;;;;;;;5.83;5.33;;;29.40;5.80;;;;;;5049260;28;20417;-69
2023/08/16 09:20:37;;;;;;;6.43;4.43;;;29.00;6.20;;;;;;5049141;28;20440;-69
2023/08/16 09:23:03;;;;;;;5.73;5.23;;;28.40;8.10;;;;;;5048793;28;20456;-69
2023/08/16 09:25:29;;;;;;;5.83;5.23;;;28.00;10.10;;;;;;5049137;28;20429;-69
2023/08/16 09:27:55;;;;;;;6.37;5.00;;;27.70;11.30;;;;;;5048950;28;20416;-69
2023/08/16 09:30:23;;;;;;;5.20;4.40;;;27.60;12.30;;;;;;5049034;28;20417;-69
2023/08/16 09:32:51;;;;;;;9.90;5.07;;;27.30;12.80;;;;;;5048841;28;20175;-69
2023/08/16 09:35:17;;;;;;;6.93;5.27;;;27.30;13.80;;;;;;5048860;28;20429;-69
2023/08/16 09:37:43;;;;;;;8.17;5.70;;;27.30;13.40;;;;;;5048880;28;20473;-69
2023/08/16 09:40:12;;;;;;;7.67;6.07;;;27.30;13.50;;;;;;5048793;28;20187;-69
2023/08/16 09:42:38;;;;;;;7.80;5.63;;;27.50;14.70;;;;;;5048454;28;20954;-69
2023/08/16 09:45:04;;;;;;;8.07;5.67;;;27.50;12.30;;;;;;5048778;28;20440;-69
2023/08/16 09:47:30;;;;;;;10.43;5.80;;;27.40;13.90;;;;;;5048707;28;20166;-69
2023/08/16 09:50:00;;;;;;;6.00;5.37;;;27.40;13.40;;;;;;5048701;28;20940;-69
2023/08/16 09:52:29;;;;;;;5.20;4.70;;;27.30;13.40;;;;;;5048670;28;20500;-69
2023/08/16 09:54:55;;;;;;;8.77;5.73;;;27.50;13.70;;;;;;5048771;28;20448;-70
2023/08/16 09:57:21;;;;;;;6.60;5.93;;;27.60;13.50;;;;;;5048713;28;20447;-70
2023/08/16 09:59:47;;;;;;;4.90;4.43;;;27.60;13.40;;;;;;5052121;28;20413;-69
2023/08/16 10:02:14;;;;;;;6.03;5.30;;;27.70;12.70;;;;;;5051741;28;20592;-69
2023/08/16 10:04:40;;;;;;;6.00;5.40;;;27.90;13.10;;;;;;5051756;28;20437;-69
2023/08/16 10:07:06;;;;;;;6.07;5.53;;;28.00;11.90;;;;;;5046449;28;20787;-69
2023/08/16 10:09:35;;;;;;;5.50;5.00;;;28.00;12.60;;;;;;5048731;28;20776;-69
2023/08/16 10:12:02;;;;;;;5.80;4.87;;;28.00;11.40;;;;;;5047507;27;20417;-69
2023/08/16 10:14:29;;;;;;;7.27;4.57;;;28.10;10.20;;;;;;5047684;28;20698;-70
2023/08/16 10:17:00;;;;;;;7.27;5.70;;;28.10;11.50;;;;;;5048288;27;20424;-69
2023/08/16 10:19:32;;;;;;;6.23;5.27;;;28.20;10.60;;;;;;5048795;28;20754;-70
2023/08/16 10:21:59;;;;;;;6.23;5.63;;;28.40;10.50;;;;;;5050223;28;20484;-69
2023/08/16 10:24:28;;;;;;;6.50;5.90;;;28.70;9.00;;;;;;5051616;27;20472;-69
2023/08/16 10:26:56;;;;;;;5.70;5.20;;;28.70;8.30;;;;;;5051767;28;20409;-70
2023/08/16 10:29:23;;;;;;;6.50;5.90;;;28.70;8.40;;;;;;5051667;27;20409;-69
2023/08/16 10:31:51;;;;;;;6.67;5.77;;;28.80;8.30;;;;;;5051435;28;20416;-69
2023/08/16 10:34:20;;;;;;;6.17;5.57;;;28.80;8.30;;;;;;5051606;27;20934;-69
2023/08/16 10:36:46;;;;;;;6.03;5.53;;;29.10;8.50;;;;;;5050477;28;20448;-69
2023/08/16 10:39:23;;;;;;;5.40;5.00;;;29.20;8.60;;;;;;5051662;28;20421;-70
2023/08/16 10:41:51;;;;;;;6.63;5.80;;;29.40;7.20;;;;;;5051022;28;20464;-69
2023/08/16 10:44:23;;;;;;;7.70;5.20;;;29.40;7.10;;;;;;5051391;28;20548;-69
2023/08/16 10:46:50;;;;;;;4.90;4.40;;;29.40;6.60;;;;;;5051487;28;20424;-70
2023/08/16 10:49:16;;;;;;;5.77;5.27;;;29.40;6.80;;;;;;5051215;28;20417;-73
2023/08/16 10:51:52;;;;;;;6.70;5.40;;;29.40;6.70;;;;;;5051069;27;20420;-70
2023/08/16 10:54:19;;;;;;;6.20;5.70;;;29.50;6.50;;;;;;5050517;28;20202;-71
2023/08/16 10:56:49;;;;;;;6.27;5.70;;;29.50;7.80;;;;;;5051266;28;20421;-71
2023/08/16 10:59:15;;;;;;;8.00;5.23;;;29.60;6.60;;;;;;5051411;28;20858;-70
2023/08/16 11:01:45;;;;;;;6.07;5.50;;;29.80;5.70;;;;;;5051021;28;20464;-70
2023/08/16 11:04:11;;;;;;;5.63;5.13;;;29.70;5.80;;;;;;5051068;28;20465;-71
2023/08/16 11:06:39;;;;;;;5.10;4.70;;;29.80;6.60;;;;;;5051129;28;20465;-70
2023/08/16 11:09:05;;;;;;;6.10;5.60;;;30.00;5.90;;;;;;5050934;28;20402;-70
2023/08/16 11:11:31;;;;;;;5.93;5.10;;;30.10;5.20;;;;;;5050741;28;20536;-70
2023/08/16 11:14:00;;;;;;;7.57;6.73;;;30.20;4.80;;;;;;5051156;28;20437;-71
2023/08/16 11:16:29;;;;;;;5.73;5.23;;;30.30;4.40;;;;;;5051329;28;20167;-70
2023/08/16 11:18:59;;;;;;;5.67;5.07;;;30.40;4.50;;;;;;5051494;28;20401;-70
2023/08/16 11:21:25;;;;;;;5.50;5.10;;;30.50;3.90;;;;;;5051102;28;20406;-71
2023/08/16 11:23:53;;;;;;;6.37;5.73;;;30.50;2.30;;;;;;5051066;28;20436;-71
2023/08/16 11:26:18;;;;;;;5.43;5.00;;;30.60;2.40;;;;;;5051484;28;20894;-70
2023/08/16 11:28:44;;;;;;;5.87;5.37;;;30.60;2.70;;;;;;5051162;28;20476;-71
2023/08/16 11:31:10;;;;;;;6.00;5.50;;;30.70;2.20;;;;;;5049884;28;20179;-71
2023/08/16 11:33:43;;;;;;;5.67;5.17;;;30.90;1.90;;;;;;5050585;28;20175;-71
2023/08/16 11:36:15;;;;;;;5.43;4.90;;;30.80;1.70;;;;;;5051047;28;20217;-71
2023/08/16 11:38:41;;;;;;;6.13;5.10;;;30.70;1.00;;;;;;5051051;28;20419;-70
2023/08/16 11:41:07;;;;;;;6.40;5.80;;;30.70;2.20;;;;;;5050682;28;20460;-70
2023/08/16 11:43:34;;;;;;;6.23;5.63;;;30.70;2.60;;;;;;5050244;28;20465;-70
2023/08/16 11:46:01;;;;;;;6.67;5.80;;;30.80;2.00;;;;;;5050493;28;20174;-70
2023/08/16 11:48:29;;;;;;;7.00;5.07;;;30.80;1.10;;;;;;5050387;28;20405;-70
2023/08/16 11:50:56;;;;;;;6.90;5.97;;;31.10;1.40;;;;;;5050482;28;20420;-70
2023/08/16 11:53:22;;;;;;;5.47;5.00;;;31.20;1.00;;;;;;5050162;28;20491;-70
2023/08/16 11:56:08;;;;;;;8.00;5.30;;;31.20;1.40;;;;;;5050448;28;20807;-70
2023/08/16 11:58:45;;;;;;;6.33;5.83;;;31.10;1.00;;;;;;5051023;28;20513;-70
2023/08/16 12:01:14;;;;;;;6.50;5.60;;;31.20;1.00;;;;;;5050341;28;20413;-70
2023/08/16 12:03:43;;;;;;;6.20;5.60;;;31.30;1.00;;;;;;5049903;28;20825;-70
2023/08/16 12:06:09;;;;;;;8.50;5.60;;;31.30;1.00;;;;;;5050244;28;20780;-70
2023/08/16 12:08:35;;;;;;;6.27;5.20;;;31.30;1.00;;;;;;5050357;28;20501;-70
2023/08/16 12:11:02;;;;;;;6.50;5.90;;;31.30;1.00;;;;;;5050349;28;20350;-70
2023/08/16 12:13:28;;;;;;;6.60;6.00;;;31.30;1.00;;;;;;5049928;28;20418;-72
2023/08/16 12:15:54;;;;;;;8.10;4.97;;;31.30;1.00;;;;;;5049973;28;20953;-72
2023/08/16 12:18:23;;;;;;;6.80;6.10;;;31.30;1.00;;;;;;5049874;28;20504;-72
2023/08/16 12:20:52;;;;;;;6.20;5.60;;;31.40;1.00;;;;;;5049770;28;20179;-72
2023/08/16 12:23:19;;;;;;;6.00;5.50;;;31.60;1.00;;;;;;5046210;28;20963;-72
2023/08/16 12:25:46;;;;;;;5.73;5.23;;;31.50;1.00;;;;;;5046295;28;21016;-72
2023/08/16 12:28:11;;;;;;;6.67;6.07;;;31.60;1.00;;;;;;5045727;28;20513;-72
2023/08/16 12:30:37;;;;;;;7.23;6.70;;;31.70;1.00;;;;;;5046407;28;21000;-72
2023/08/16 12:33:09;;;;;;;6.33;5.73;;;31.50;1.00;;;;;;5045696;28;20230;-72
2023/08/16 12:35:34;;;;;;;5.90;5.30;;;31.50;1.00;;;;;;5045400;28;20259;-72
2023/08/16 12:38:02;;;;;;;6.80;5.90;;;31.80;1.00;;;;;;5044507;28;20989;-72
2023/08/16 12:40:29;;;;;;;6.00;5.40;;;32.00;1.00;;;;;;5046514;28;20186;-71
2023/08/16 12:42:55;;;;;;;6.60;5.90;;;32.10;1.00;;;;;;5045567;28;20589;-72
2023/08/16 12:45:21;;;;;;;5.97;5.47;;;32.20;1.00;;;;;;5029266;28;20521;-72
2023/08/16 12:47:46;;;;;;;6.27;5.87;;;31.90;1.00;;;;;;5026662;28;20179;-71